Time;durP1;ratioP1;P1;durP2;ratioP2;P2;SDS_P1;SDS_P2;PMS_P1;PMS_P2;Temp;Humidity;BMP_temperature;BMP_pressure;BME280_temperature;BME280_humidity;BME280_pressure;Samples;Min_cycle;Max_cycle;Signal;HPM_P1;HPM_P2
2023/08/02 00:01:02;;;;;;;5.30;2.28;;;15.50;99.90;;;;;;5077763;28;20375;-82
2023/08/02 00:03:28;;;;;;;6.15;2.83;;;16.00;99.90;;;;;;5071039;28;20127;-81
2023/08/02 00:05:58;;;;;;;5.35;2.53;;;15.60;99.90;;;;;;5055867;28;20482;-81
2023/08/02 00:08:25;;;;;;;6.35;2.55;;;15.40;99.90;;;;;;5067016;28;20403;-82
2023/08/02 00:10:51;;;;;;;6.30;2.60;;;16.20;99.90;;;;;;5065273;28;20044;-81
2023/08/02 00:13:17;;;;;;;3.47;2.60;;;15.50;99.90;;;;;;5067657;28;20051;-82
2023/08/02 00:15:42;;;;;;;6.40;2.88;;;15.40;99.90;;;;;;5066115;28;20048;-81
2023/08/02 00:18:08;;;;;;;6.22;3.25;;;15.40;99.90;;;;;;5049789;28;20045;-82
2023/08/02 00:20:36;;;;;;;6.65;3.25;;;15.50;99.90;;;;;;5067099;28;20055;-82
2023/08/02 00:23:02;;;;;;;7.15;3.30;;;15.50;99.90;;;;;;5062994;28;20040;-81
2023/08/02 00:25:27;;;;;;;10.80;4.05;;;15.40;99.90;;;;;;5049250;28;20075;-82
2023/08/02 00:27:53;;;;;;;5.43;2.97;;;15.40;99.90;;;;;;5067365;28;20055;-81
2023/08/02 00:30:18;;;;;;;6.10;3.35;;;15.40;99.90;;;;;;5072966;28;20052;-82
2023/08/02 00:32:48;;;;;;;8.48;3.10;;;15.80;99.90;;;;;;5066501;28;20515;-82
2023/08/02 00:35:15;;;;;;;5.00;3.08;;;15.40;99.90;;;;;;5067068;28;20049;-82
2023/08/02 00:37:42;;;;;;;7.55;3.42;;;15.30;99.90;;;;;;5067086;28;20446;-82
2023/08/02 00:40:08;;;;;;;7.68;3.22;;;15.40;99.90;;;;;;5064520;28;20852;-81
2023/08/02 00:42:35;;;;;;;6.07;3.10;;;15.40;99.90;;;;;;5084089;28;20087;-82
2023/08/02 00:45:01;;;;;;;6.40;3.45;;;15.50;99.90;;;;;;5074054;28;20060;-82
2023/08/02 00:47:27;;;;;;;7.88;3.40;;;15.40;99.90;;;;;;5066928;28;20399;-82
2023/08/02 00:49:53;;;;;;;9.60;3.40;;;15.40;99.90;;;;;;5057994;28;20052;-82
2023/08/02 00:52:19;;;;;;;5.28;3.13;;;15.30;99.90;;;;;;5083396;28;20064;-82
2023/08/02 00:54:45;;;;;;;7.00;3.30;;;15.60;99.90;;;;;;5073367;28;20502;-81
2023/08/02 00:57:11;;;;;;;6.00;3.03;;;15.80;99.90;;;;;;5078694;28;20047;-82
2023/08/02 00:59:38;;;;;;;7.93;3.45;;;15.40;99.90;;;;;;5065814;28;20048;-82
2023/08/02 01:02:06;;;;;;;9.07;3.30;;;15.40;99.90;;;;;;5072346;28;20044;-81
2023/08/02 01:04:32;;;;;;;8.65;3.58;;;15.40;99.90;;;;;;5074435;28;20040;-82
2023/08/02 01:07:07;;;;;;;8.38;3.40;;;15.40;99.90;;;;;;5075535;28;20036;-81
2023/08/02 01:09:43;;;;;;;9.15;3.33;;;15.40;99.90;;;;;;5066479;28;20044;-82
2023/08/02 01:12:13;;;;;;;6.55;3.25;;;15.40;99.90;;;;;;5049759;28;20037;-82
2023/08/02 01:14:49;;;;;;;8.07;3.80;;;15.40;99.90;;;;;;5066373;28;20052;-81
2023/08/02 01:17:15;;;;;;;5.60;3.17;;;15.50;99.90;;;;;;5065166;28;20525;-81
2023/08/02 01:19:42;;;;;;;6.15;3.35;;;15.40;99.90;;;;;;5076665;28;21110;-81
2023/08/02 01:22:08;;;;;;;9.32;3.70;;;15.40;99.90;;;;;;5078536;28;20043;-81
2023/08/02 01:24:35;;;;;;;11.43;4.00;;;15.40;99.90;;;;;;5082756;28;20418;-82
2023/08/02 01:27:07;;;;;;;7.80;3.53;;;15.40;99.90;;;;;;5080981;28;20045;-82
2023/08/02 01:29:36;;;;;;;7.80;3.60;;;15.40;99.90;;;;;;5076286;28;20450;-82
2023/08/02 01:32:03;;;;;;;6.47;3.45;;;15.40;99.90;;;;;;5071620;28;20048;-82
2023/08/02 01:34:30;;;;;;;7.85;3.42;;;15.40;99.90;;;;;;5049209;28;20527;-81
2023/08/02 01:36:56;;;;;;;9.75;3.60;;;15.40;99.90;;;;;;5067057;28;20108;-81
2023/08/02 01:39:21;;;;;;;8.73;3.50;;;15.40;99.90;;;;;;5067531;28;20048;-81
2023/08/02 01:41:47;;;;;;;7.82;3.67;;;15.40;99.90;;;;;;5084767;28;20039;-81
2023/08/02 01:44:13;;;;;;;8.40;3.92;;;15.30;99.90;;;;;;5085356;28;20507;-82
2023/08/02 01:46:38;;;;;;;8.73;3.78;;;15.30;99.90;;;;;;5083367;28;20164;-82
2023/08/02 01:49:04;;;;;;;12.35;4.30;;;15.40;99.90;;;;;;5057916;28;20601;-81
2023/08/02 01:51:29;;;;;;;6.70;3.80;;;15.30;99.90;;;;;;5074159;28;20044;-82
2023/08/02 01:53:55;;;;;;;7.32;4.07;;;15.30;99.90;;;;;;5064909;28;20474;-81
2023/08/02 01:56:20;;;;;;;11.55;4.43;;;15.30;99.90;;;;;;5081998;28;20214;-82
2023/08/02 01:58:46;;;;;;;8.85;4.68;;;15.30;99.90;;;;;;5049804;28;20048;-82
2023/08/02 02:01:11;;;;;;;9.05;4.20;;;15.30;99.90;;;;;;5064951;28;20037;-82
2023/08/02 02:03:37;;;;;;;11.75;4.97;;;15.30;99.90;;;;;;5067271;28;20052;-81
2023/08/02 02:06:03;;;;;;;6.75;4.13;;;15.50;99.90;;;;;;5060436;28;20053;-82
2023/08/02 02:08:28;;;;;;;8.52;4.22;;;15.30;99.90;;;;;;5080413;28;20048;-82
2023/08/02 02:10:54;;;;;;;12.18;4.70;;;15.70;99.90;;;;;;5054441;28;20494;-82
2023/08/02 02:13:22;;;;;;;9.23;4.10;;;16.20;99.90;;;;;;5065525;28;20142;-82
2023/08/02 02:15:47;;;;;;;10.85;4.97;;;15.30;99.90;;;;;;5071676;28;20051;-82
2023/08/02 02:18:13;;;;;;;7.78;4.28;;;15.30;99.90;;;;;;5071596;28;20048;-82
2023/08/02 02:20:39;;;;;;;12.60;5.00;;;15.30;99.90;;;;;;5070731;28;20067;-82
2023/08/02 02:23:05;;;;;;;8.63;4.40;;;15.30;99.90;;;;;;5083639;28;20502;-82
2023/08/02 02:25:30;;;;;;;12.23;4.57;;;15.30;99.90;;;;;;5063516;28;20041;-82
2023/08/02 02:27:56;;;;;;;10.75;4.50;;;15.30;99.90;;;;;;5066819;28;20048;-82
2023/08/02 02:30:22;;;;;;;12.15;4.88;;;15.30;99.90;;;;;;5058857;28;20121;-82
2023/08/02 02:32:47;;;;;;;13.27;4.75;;;15.30;99.90;;;;;;5061294;28;20439;-82
2023/08/02 02:35:13;;;;;;;12.18;5.03;;;15.30;99.90;;;;;;5052678;28;20044;-82
2023/08/02 02:37:39;;;;;;;12.35;5.15;;;15.30;99.90;;;;;;5070133;28;20106;-81
2023/08/02 02:40:09;;;;;;;9.88;4.60;;;15.20;99.90;;;;;;5056076;28;20043;-82
2023/08/02 02:42:38;;;;;;;10.07;4.60;;;15.30;99.90;;;;;;5070544;28;20072;-82
2023/08/02 02:45:07;;;;;;;11.93;4.70;;;15.30;99.90;;;;;;5065809;28;20443;-82
2023/08/02 02:47:33;;;;;;;10.93;4.38;;;15.20;99.90;;;;;;5069036;28;20083;-82
2023/08/02 02:49:58;;;;;;;11.90;4.68;;;15.30;99.90;;;;;;5068693;28;20086;-82
2023/08/02 02:52:24;;;;;;;13.10;4.90;;;15.20;99.90;;;;;;5052617;28;20487;-82
2023/08/02 02:54:49;;;;;;;14.63;4.97;;;15.20;99.90;;;;;;5070867;28;20345;-82
2023/08/02 02:57:16;;;;;;;9.50;4.70;;;15.20;99.90;;;;;;5074272;28;20036;-82
2023/08/02 02:59:42;;;;;;;11.70;4.47;;;15.20;99.90;;;;;;5056040;28;20064;-82
2023/08/02 03:02:11;;;;;;;11.35;4.68;;;15.20;99.90;;;;;;5081103;28;20071;-82
2023/08/02 03:04:37;;;;;;;11.98;5.05;;;15.50;99.90;;;;;;5077987;28;20032;-82
2023/08/02 03:07:03;;;;;;;12.40;4.95;;;15.20;99.90;;;;;;5067760;28;20047;-82
2023/08/02 03:09:28;;;;;;;10.57;4.60;;;15.20;99.90;;;;;;5067945;28;20041;-82
2023/08/02 03:11:54;;;;;;;12.07;4.55;;;15.10;99.90;;;;;;5075548;28;20083;-82
2023/08/02 03:14:20;;;;;;;9.70;4.22;;;15.50;99.90;;;;;;5085252;28;20037;-82
2023/08/02 03:16:48;;;;;;;12.77;4.90;;;15.30;99.90;;;;;;5069012;28;20047;-82
2023/08/02 03:19:14;;;;;;;14.70;4.90;;;15.10;99.90;;;;;;5050722;28;20040;-81
2023/08/02 03:21:39;;;;;;;12.68;4.60;;;15.30;99.90;;;;;;5068415;28;20079;-82
2023/08/02 03:24:05;;;;;;;13.70;4.85;;;15.00;99.90;;;;;;5068173;28;20090;-81
2023/08/02 03:26:31;;;;;;;13.85;4.95;;;15.00;99.90;;;;;;5060770;28;20081;-82
2023/08/02 03:28:57;;;;;;;13.85;5.50;;;15.00;99.90;;;;;;5071668;28;20052;-82
2023/08/02 03:31:22;;;;;;;13.73;5.13;;;15.00;99.90;;;;;;5066078;28;20080;-81
2023/08/02 03:33:48;;;;;;;12.18;5.18;;;14.80;99.90;;;;;;5067179;28;20383;-81
2023/08/02 03:36:15;;;;;;;13.80;5.38;;;15.00;99.90;;;;;;5051396;28;20040;-82
2023/08/02 03:38:41;;;;;;;10.27;5.57;;;14.90;99.90;;;;;;5073313;28;20040;-82
2023/08/02 03:41:07;;;;;;;9.65;4.80;;;14.90;99.90;;;;;;5076304;28;20040;-82
2023/08/02 03:43:32;;;;;;;11.02;5.38;;;14.90;99.90;;;;;;5070178;28;20102;-81
2023/08/02 03:45:58;;;;;;;12.88;5.72;;;14.80;99.90;;;;;;5074867;28;20557;-81
2023/08/02 03:48:25;;;;;;;12.13;5.63;;;14.80;99.90;;;;;;5066810;28;20160;-81
2023/08/02 03:50:50;;;;;;;12.45;5.45;;;15.10;99.90;;;;;;5049920;28;20041;-81
2023/08/02 03:53:16;;;;;;;11.90;5.45;;;14.80;99.90;;;;;;5066388;28;20099;-82
2023/08/02 03:55:42;;;;;;;10.82;5.38;;;14.80;99.90;;;;;;5085391;28;20044;-81
2023/08/02 03:58:08;;;;;;;12.35;5.72;;;14.70;99.90;;;;;;5064017;28;20040;-81
2023/08/02 04:00:33;;;;;;;15.52;5.97;;;14.70;99.90;;;;;;5057684;28;20067;-82
2023/08/02 04:02:59;;;;;;;9.82;5.50;;;14.70;99.90;;;;;;5070370;28;20048;-82
2023/08/02 04:05:25;;;;;;;12.13;5.20;;;14.60;99.90;;;;;;5074388;28;20554;-82
2023/08/02 04:07:51;;;;;;;13.60;5.28;;;14.60;99.90;;;;;;5076205;28;20040;-82
2023/08/02 04:10:16;;;;;;;9.80;5.93;;;14.60;99.90;;;;;;5065710;28;20063;-82
2023/08/02 04:12:42;;;;;;;11.80;5.28;;;14.50;99.90;;;;;;5080211;28;20123;-81
2023/08/02 04:15:08;;;;;;;12.65;5.88;;;14.50;99.90;;;;;;5050269;28;20040;-82
2023/08/02 04:17:34;;;;;;;11.88;6.07;;;14.50;99.90;;;;;;5085842;28;20051;-82
2023/08/02 04:20:01;;;;;;;13.07;5.50;;;14.50;99.90;;;;;;5066902;28;20044;-82
2023/08/02 04:22:29;;;;;;;11.77;5.97;;;14.50;99.90;;;;;;5050543;28;20814;-81
2023/08/02 04:24:54;;;;;;;10.75;5.47;;;14.40;99.90;;;;;;5083845;28;20687;-81
2023/08/02 04:27:20;;;;;;;13.95;5.40;;;14.40;99.90;;;;;;5056670;28;20074;-81
2023/08/02 04:29:45;;;;;;;14.23;6.20;;;14.40;99.90;;;;;;5066491;28;20048;-81
2023/08/02 04:32:11;;;;;;;12.07;5.55;;;14.40;99.90;;;;;;5083567;28;20101;-82
2023/08/02 04:34:36;;;;;;;16.13;5.97;;;14.70;99.90;;;;;;5073013;28;20059;-82
2023/08/02 04:37:02;;;;;;;11.40;5.75;;;14.40;99.90;;;;;;5086815;28;20133;-82
2023/08/02 04:39:28;;;;;;;11.68;5.93;;;14.40;99.90;;;;;;5050485;28;20041;-82
2023/08/02 04:41:54;;;;;;;12.30;5.68;;;14.60;99.90;;;;;;5073351;28;20044;-82
2023/08/02 04:44:20;;;;;;;12.55;6.80;;;14.60;99.90;;;;;;5077653;28;20109;-82
2023/08/02 04:46:46;;;;;;;11.18;6.35;;;14.40;99.90;;;;;;5066570;28;20139;-81
2023/08/02 04:49:11;;;;;;;14.35;5.78;;;14.50;99.90;;;;;;5072454;28;20059;-82
2023/08/02 04:51:38;;;;;;;15.45;5.95;;;14.50;99.90;;;;;;5078722;28;20062;-82
2023/08/02 04:54:04;;;;;;;10.02;6.22;;;14.90;99.90;;;;;;5071792;28;20048;-82
2023/08/02 04:56:30;;;;;;;12.48;5.47;;;14.50;99.90;;;;;;5067967;28;20043;-82
2023/08/02 04:58:56;;;;;;;13.80;6.00;;;14.50;99.90;;;;;;5086307;28;20048;-82
2023/08/02 05:01:22;;;;;;;12.52;5.70;;;14.40;99.90;;;;;;5066233;28;20040;-82
2023/08/02 05:03:47;;;;;;;11.07;5.60;;;14.50;99.90;;;;;;5068323;28;20450;-82
2023/08/02 05:06:13;;;;;;;9.90;5.90;;;14.50;99.90;;;;;;5068367;28;20545;-82
2023/08/02 05:08:38;;;;;;;13.80;5.97;;;15.00;99.90;;;;;;5066028;28;20040;-82
2023/08/02 05:11:05;;;;;;;11.80;6.18;;;14.80;99.90;;;;;;5048902;28;20044;-82
2023/08/02 05:13:31;;;;;;;9.90;5.78;;;14.60;99.90;;;;;;5060758;28;20036;-82
2023/08/02 05:15:57;;;;;;;14.05;6.18;;;14.60;99.90;;;;;;5066947;28;20123;-82
2023/08/02 05:18:22;;;;;;;11.18;6.03;;;14.70;99.90;;;;;;5069174;28;20045;-82
2023/08/02 05:20:48;;;;;;;9.55;6.30;;;14.80;99.90;;;;;;5049398;28;20470;-82
2023/08/02 05:23:14;;;;;;;11.68;5.85;;;14.80;99.90;;;;;;5049048;28;20101;-82
2023/08/02 05:25:40;;;;;;;9.50;6.00;;;14.90;99.90;;;;;;5066222;28;20056;-83
2023/08/02 05:28:06;;;;;;;10.05;5.55;;;14.90;99.90;;;;;;5055894;28;20135;-83
2023/08/02 05:30:32;;;;;;;10.23;6.03;;;14.90;99.90;;;;;;5084755;28;20051;-82
2023/08/02 05:32:58;;;;;;;10.40;6.00;;;15.00;99.90;;;;;;5056275;28;20048;-84
2023/08/02 05:35:25;;;;;;;8.82;5.38;;;15.10;99.90;;;;;;5074699;28;20081;-83
2023/08/02 05:37:54;;;;;;;10.90;5.60;;;16.00;99.90;;;;;;5073749;28;20502;-82
2023/08/02 05:40:20;;;;;;;11.68;5.72;;;15.30;99.90;;;;;;5065944;28;20048;-82
2023/08/02 05:42:45;;;;;;;13.50;5.93;;;15.30;99.90;;;;;;5049379;28;20044;-82
2023/08/02 05:45:11;;;;;;;11.63;5.95;;;15.80;99.90;;;;;;5065869;28;20052;-82
2023/08/02 05:47:37;;;;;;;9.57;5.38;;;15.60;99.90;;;;;;5066667;28;20411;-82
2023/08/02 05:50:03;;;;;;;12.25;5.28;;;15.60;99.90;;;;;;5049523;28;20053;-83
2023/08/02 05:52:28;;;;;;;10.70;5.65;;;15.70;99.90;;;;;;5076225;28;20695;-83
2023/08/02 05:54:54;;;;;;;13.13;5.28;;;15.80;99.90;;;;;;5053558;28;20044;-82
2023/08/02 05:57:20;;;;;;;8.68;4.50;;;16.10;99.90;;;;;;5066485;28;20048;-82
2023/08/02 05:59:48;;;;;;;8.77;4.97;;;16.50;99.90;;;;;;5048857;28;20067;-82
2023/08/02 06:02:14;;;;;;;8.07;4.18;;;17.40;99.90;;;;;;5067287;28;20070;-82
2023/08/02 06:04:44;;;;;;;9.48;4.53;;;17.10;99.90;;;;;;5069928;28;20052;-82
2023/08/02 06:07:10;;;;;;;12.55;5.13;;;17.00;99.90;;;;;;5069870;28;20137;-82
2023/08/02 06:09:35;;;;;;;10.25;4.82;;;16.80;99.90;;;;;;5062005;28;20153;-82
2023/08/02 06:12:02;;;;;;;8.35;4.43;;;16.70;99.90;;;;;;5084906;28;20096;-82
2023/08/02 06:14:27;;;;;;;7.63;4.35;;;16.70;99.90;;;;;;5083868;28;20048;-83
2023/08/02 06:16:53;;;;;;;8.75;4.88;;;16.70;99.90;;;;;;5070619;28;20044;-82
2023/08/02 06:19:19;;;;;;;10.30;5.00;;;16.70;99.90;;;;;;5056011;28;20051;-82
2023/08/02 06:21:44;;;;;;;8.20;4.75;;;17.00;99.90;;;;;;5069355;28;20083;-85
2023/08/02 06:24:10;;;;;;;9.13;4.80;;;16.60;99.90;;;;;;5069145;28;20032;-81
2023/08/02 06:26:35;;;;;;;11.18;4.78;;;16.90;99.90;;;;;;5069516;28;20056;-82
2023/08/02 06:29:01;;;;;;;9.07;4.40;;;16.70;99.90;;;;;;5069443;28;20055;-81
2023/08/02 06:31:27;;;;;;;8.18;4.05;;;17.10;99.90;;;;;;5072735;28;20040;-81
2023/08/02 06:33:52;;;;;;;7.93;4.40;;;16.90;99.90;;;;;;5089240;28;20044;-81
2023/08/02 06:36:19;;;;;;;8.38;4.00;;;16.70;99.90;;;;;;5089301;28;20044;-82
2023/08/02 06:38:46;;;;;;;8.13;4.05;;;17.00;99.90;;;;;;5068727;28;20056;-81
2023/08/02 06:41:12;;;;;;;7.18;3.80;;;16.80;99.90;;;;;;5069362;28;20049;-82
2023/08/02 06:43:38;;;;;;;9.63;4.38;;;16.70;99.90;;;;;;5052192;28;20091;-81
2023/08/02 06:46:04;;;;;;;8.20;3.80;;;17.10;99.90;;;;;;5079442;28;20044;-81
2023/08/02 06:48:30;;;;;;;5.85;3.78;;;16.70;99.90;;;;;;5089109;28;20056;-82
2023/08/02 06:50:55;;;;;;;6.03;3.67;;;16.60;99.90;;;;;;5089125;28;20391;-81
2023/08/02 06:53:21;;;;;;;7.50;4.10;;;16.70;99.90;;;;;;5072314;28;20102;-82
2023/08/02 06:55:47;;;;;;;7.43;4.07;;;16.80;99.90;;;;;;5059291;28;20101;-82
2023/08/02 06:58:13;;;;;;;5.75;4.10;;;17.00;99.90;;;;;;5066914;28;20139;-82
2023/08/02 07:00:42;;;;;;;5.95;3.70;;;16.50;99.90;;;;;;5061670;28;20123;-80
2023/08/02 07:03:08;;;;;;;6.88;3.50;;;16.50;99.90;;;;;;5089111;28;20056;-82
2023/08/02 07:05:34;;;;;;;7.97;4.00;;;16.70;99.90;;;;;;5089272;28;20751;-83
2023/08/02 07:08:02;;;;;;;6.22;3.42;;;16.40;99.90;;;;;;5071849;28;20048;-81
2023/08/02 07:10:28;;;;;;;7.47;3.40;;;16.40;99.90;;;;;;5072200;28;20082;-83
2023/08/02 07:12:55;;;;;;;9.05;3.95;;;16.30;99.90;;;;;;5084873;28;20047;-83
2023/08/02 07:15:21;;;;;;;6.30;3.70;;;16.30;99.90;;;;;;5059774;28;20048;-83
2023/08/02 07:17:47;;;;;;;5.43;3.33;;;16.30;99.90;;;;;;5058830;28;20728;-83
2023/08/02 07:20:14;;;;;;;8.50;3.80;;;16.30;99.90;;;;;;5074567;28;20511;-82
2023/08/02 07:22:42;;;;;;;10.93;3.97;;;17.20;99.90;;;;;;5082197;28;20059;-82
2023/08/02 07:25:08;;;;;;;9.02;4.05;;;16.50;99.90;;;;;;5075793;28;20448;-82
2023/08/02 07:27:34;;;;;;;6.25;3.78;;;16.50;99.90;;;;;;5085575;28;20052;-81
2023/08/02 07:29:59;;;;;;;7.40;3.90;;;16.50;99.90;;;;;;5071438;28;20422;-81
2023/08/02 07:32:25;;;;;;;8.50;3.85;;;16.50;99.90;;;;;;5088404;28;20181;-82
2023/08/02 07:34:54;;;;;;;7.45;3.75;;;16.50;99.90;;;;;;5071046;28;20040;-82
2023/08/02 07:37:19;;;;;;;5.93;3.90;;;16.40;99.90;;;;;;5088462;28;20047;-83
2023/08/02 07:39:45;;;;;;;5.40;4.22;;;16.40;99.90;;;;;;5084560;28;20044;-86
2023/08/02 07:42:11;;;;;;;6.28;4.03;;;16.30;99.90;;;;;;5083250;28;20041;-86
2023/08/02 07:44:37;;;;;;;8.18;4.00;;;16.20;99.90;;;;;;5051715;28;20558;-85
2023/08/02 07:47:04;;;;;;;8.57;4.68;;;16.20;99.90;;;;;;5067333;28;20060;-83
2023/08/02 07:49:31;;;;;;;10.40;4.47;;;16.10;99.90;;;;;;5087563;28;20060;-85
2023/08/02 07:51:57;;;;;;;6.50;3.85;;;16.40;99.90;;;;;;5087541;28;20634;-86
2023/08/02 07:54:22;;;;;;;10.98;4.55;;;16.40;99.90;;;;;;5088922;28;20233;-89
2023/08/02 07:56:48;;;;;;;7.35;4.18;;;16.70;99.90;;;;;;5091450;28;20047;-89
2023/08/02 07:59:14;;;;;;;7.63;4.00;;;16.10;99.90;;;;;;5092635;28;20036;-91
2023/08/02 08:01:43;;;;;;;8.40;4.15;;;16.40;99.90;;;;;;5074057;28;20052;-91
2023/08/02 08:04:09;;;;;;;8.45;4.30;;;15.80;99.90;;;;;;5055384;28;20510;-88
2023/08/02 08:06:47;;;;;;;6.40;4.22;;;15.70;99.90;;;;;;5068119;28;20036;-90
2023/08/02 08:09:12;;;;;;;10.70;4.30;;;15.70;99.90;;;;;;5072013;28;20037;-90
2023/08/02 08:11:39;;;;;;;8.55;4.25;;;15.90;99.90;;;;;;5067064;28;20464;-92
2023/08/02 08:14:07;;;;;;;13.75;4.03;;;15.60;99.90;;;;;;5059167;28;20040;-95
2023/08/02 08:16:32;;;;;;;11.98;4.55;;;15.60;99.90;;;;;;5056424;28;20140;-89
2023/08/02 08:18:59;;;;;;;6.95;3.60;;;15.60;99.90;;;;;;5057991;28;20128;-91
2023/08/02 08:21:27;;;;;;;10.15;4.00;;;15.50;99.90;;;;;;5058277;28;20047;-93
2023/08/02 08:23:53;;;;;;;8.45;4.10;;;15.50;99.90;;;;;;5062119;28;20422;-91
2023/08/02 08:26:19;;;;;;;5.68;3.85;;;15.30;99.90;;;;;;5059785;28;20143;-89
2023/08/02 08:28:46;;;;;;;9.27;3.42;;;15.70;99.90;;;;;;5057933;28;20063;-88
2023/08/02 08:31:12;;;;;;;8.00;4.13;;;15.50;99.90;;;;;;5075799;28;20535;-90
2023/08/02 08:33:38;;;;;;;9.82;4.28;;;16.10;99.90;;;;;;5057997;28;20130;-93
2023/08/02 08:36:15;;;;;;;8.10;4.50;;;15.50;99.90;;;;;;5075099;28;20513;-94
2023/08/02 08:38:41;;;;;;;7.20;3.90;;;15.80;99.90;;;;;;5056907;28;20127;-89
2023/08/02 08:41:15;;;;;;;7.38;3.83;;;16.00;99.90;;;;;;5092562;28;20080;-87
2023/08/02 08:43:41;;;;;;;7.00;4.53;;;15.80;99.90;;;;;;5073452;28;20904;-89
2023/08/02 08:46:07;;;;;;;8.52;4.28;;;15.50;99.90;;;;;;5072884;28;20049;-86
2023/08/02 08:48:37;;;;;;;10.43;5.13;;;15.60;99.90;;;;;;5054128;28;20061;-88
2023/08/02 08:51:03;;;;;;;7.60;4.47;;;15.60;99.90;;;;;;5055292;28;20229;-86
2023/08/02 08:53:34;;;;;;;9.95;4.80;;;15.70;99.90;;;;;;5089104;28;20055;-88
2023/08/02 08:56:05;;;;;;;7.05;4.28;;;15.80;99.90;;;;;;5069444;28;20059;-89
2023/08/02 08:58:37;;;;;;;5.90;4.03;;;15.80;99.90;;;;;;5070437;28;20383;-90
2023/08/02 09:01:05;;;;;;;7.38;4.85;;;15.80;99.90;;;;;;5070543;28;20193;-89
2023/08/02 09:03:32;;;;;;;9.07;4.63;;;15.80;99.90;;;;;;5075581;28;20371;-86
2023/08/02 09:06:02;;;;;;;8.55;4.63;;;15.80;99.90;;;;;;5068267;28;20047;-86
2023/08/02 09:08:28;;;;;;;7.78;4.93;;;15.20;99.90;;;;;;5050924;28;20127;-87
2023/08/02 09:10:54;;;;;;;7.82;4.97;;;15.80;99.90;;;;;;5050728;28;20039;-82
2023/08/02 09:13:27;;;;;;;8.05;5.18;;;16.00;99.90;;;;;;5085558;28;20044;-86
2023/08/02 09:16:10;;;;;;;8.43;4.88;;;15.90;99.90;;;;;;5062240;28;20910;-86
2023/08/02 09:18:44;;;;;;;7.57;4.60;;;15.70;99.90;;;;;;5052430;28;20033;-86
2023/08/02 09:21:14;;;;;;;8.63;5.40;;;15.70;99.90;;;;;;5054807;28;20039;-84
2023/08/02 09:23:40;;;;;;;9.50;5.13;;;15.60;99.90;;;;;;5072923;28;20064;-85
2023/08/02 09:26:13;;;;;;;7.93;5.22;;;15.70;99.90;;;;;;5058285;28;20074;-87
2023/08/02 09:28:39;;;;;;;10.52;5.68;;;15.70;99.90;;;;;;5070809;28;20075;-85
2023/08/02 09:31:18;;;;;;;7.90;4.80;;;15.90;99.90;;;;;;5052487;28;20529;-88
2023/08/02 09:33:51;;;;;;;9.02;4.85;;;16.00;99.90;;;;;;5051782;28;20032;-87
2023/08/02 09:36:31;;;;;;;6.95;4.95;;;16.10;99.90;;;;;;5067916;28;20060;-85
2023/08/02 09:39:01;;;;;;;10.93;5.47;;;16.20;99.90;;;;;;5054177;28;20047;-85
2023/08/02 09:41:27;;;;;;;7.78;4.68;;;16.70;99.90;;;;;;5083377;28;20055;-85
2023/08/02 09:43:53;;;;;;;9.88;5.03;;;16.30;99.90;;;;;;5066248;28;20855;-84
2023/08/02 09:46:30;;;;;;;6.57;4.70;;;16.80;99.90;;;;;;5071299;28;20049;-82
2023/08/02 09:49:01;;;;;;;8.35;5.00;;;16.30;99.90;;;;;;5072454;28;20150;-84
2023/08/02 09:51:44;;;;;;;5.75;4.78;;;16.60;99.90;;;;;;5053952;28;20059;-83
2023/08/02 09:54:11;;;;;;;6.78;4.55;;;16.30;99.90;;;;;;5052779;28;20047;-85
2023/08/02 09:56:38;;;;;;;6.75;4.50;;;16.70;99.90;;;;;;5070265;28;20048;-85
2023/08/02 09:59:08;;;;;;;5.15;4.65;;;16.30;99.90;;;;;;5053850;28;20817;-84
2023/08/02 10:01:35;;;;;;;5.38;4.13;;;16.30;99.90;;;;;;5057095;28;20072;-87
2023/08/02 10:04:11;;;;;;;4.80;4.25;;;16.30;99.90;;;;;;5063887;28;20036;-85
2023/08/02 10:06:46;;;;;;;4.97;4.47;;;17.00;99.90;;;;;;5053144;28;20044;-83
2023/08/02 10:09:18;;;;;;;3.60;3.30;;;16.40;99.90;;;;;;5072834;28;20121;-85
2023/08/02 10:11:52;;;;;;;5.82;3.38;;;16.40;99.90;;;;;;5086429;28;20152;-87
2023/08/02 10:14:19;;;;;;;3.90;3.33;;;16.40;99.90;;;;;;5087686;28;20044;-86
2023/08/02 10:16:45;;;;;;;4.07;2.88;;;16.40;99.90;;;;;;5071320;28;20040;-85
2023/08/02 10:19:17;;;;;;;4.47;2.95;;;16.40;99.90;;;;;;5054679;28;20041;-85
2023/08/02 10:21:43;;;;;;;3.05;2.60;;;16.70;99.90;;;;;;5081904;28;20052;-83
2023/08/02 10:24:12;;;;;;;4.05;2.92;;;16.40;99.90;;;;;;5062431;28;20478;-86
2023/08/02 10:26:38;;;;;;;3.67;2.60;;;16.50;99.90;;;;;;5070777;28;20653;-85
2023/08/02 10:29:06;;;;;;;2.70;2.13;;;16.80;99.90;;;;;;5072180;28;20048;-85
2023/08/02 10:31:32;;;;;;;3.60;2.30;;;16.60;99.90;;;;;;5079315;28;20075;-84
2023/08/02 10:33:58;;;;;;;3.92;2.80;;;17.60;99.90;;;;;;5089452;28;20413;-84
2023/08/02 10:36:23;;;;;;;2.67;2.47;;;16.60;99.90;;;;;;5072521;28;20044;-85
2023/08/02 10:38:53;;;;;;;2.05;1.90;;;16.60;99.90;;;;;;5081289;28;20063;-83
2023/08/02 10:41:26;;;;;;;2.97;1.75;;;16.60;99.90;;;;;;5057402;28;20096;-83
2023/08/02 10:43:57;;;;;;;2.30;2.03;;;16.60;99.90;;;;;;5089751;28;20044;-84
2023/08/02 10:46:26;;;;;;;2.58;2.10;;;16.60;99.90;;;;;;5067882;28;20043;-85
2023/08/02 10:49:10;;;;;;;2.30;2.10;;;16.70;99.90;;;;;;5074724;28;20071;-85
2023/08/02 10:51:37;;;;;;;3.33;2.05;;;16.70;99.90;;;;;;5068265;28;20668;-85
2023/08/02 10:54:19;;;;;;;1.70;1.60;;;16.80;99.90;;;;;;5067736;28;20048;-85
2023/08/02 10:56:58;;;;;;;3.35;1.80;;;16.80;99.90;;;;;;5067170;28;20044;-84
2023/08/02 10:59:24;;;;;;;2.22;1.60;;;16.90;99.90;;;;;;5061159;28;20056;-84
2023/08/02 11:02:00;;;;;;;1.80;1.70;;;16.90;99.90;;;;;;5070854;28;20036;-86
2023/08/02 11:04:28;;;;;;;2.53;1.67;;;17.00;99.90;;;;;;5077393;28;20048;-83
2023/08/02 11:06:53;;;;;;;2.90;1.58;;;17.10;99.90;;;;;;5050887;28;20055;-84
2023/08/02 11:09:32;;;;;;;1.60;1.50;;;17.00;99.90;;;;;;5067039;28;20040;-83
2023/08/02 11:12:15;;;;;;;1.50;1.40;;;17.10;99.90;;;;;;5068334;28;20052;-87
2023/08/02 11:14:43;;;;;;;2.13;1.70;;;17.10;99.90;;;;;;5051928;28;20070;-87
2023/08/02 11:17:10;;;;;;;1.50;1.40;;;17.10;99.90;;;;;;5068382;28;20131;-87
2023/08/02 11:19:36;;;;;;;1.60;1.50;;;17.30;99.90;;;;;;5069308;28;20044;-90
2023/08/02 11:22:02;;;;;;;1.45;1.35;;;17.20;99.90;;;;;;5067496;28;20039;-86
2023/08/02 11:24:28;;;;;;;3.00;1.73;;;17.30;99.90;;;;;;5067512;28;20032;-88
2023/08/02 11:26:59;;;;;;;1.67;1.52;;;17.60;99.90;;;;;;5051318;28;20126;-86
2023/08/02 11:29:25;;;;;;;1.45;1.35;;;17.40;99.90;;;;;;5052182;28;20052;-88
2023/08/02 11:31:53;;;;;;;2.78;1.52;;;17.60;99.90;;;;;;5067863;28;20041;-88
2023/08/02 11:34:19;;;;;;;2.35;1.63;;;17.80;99.90;;;;;;5063724;28;20105;-86
2023/08/02 11:36:49;;;;;;;1.60;1.50;;;17.60;99.90;;;;;;5071696;28;20066;-89
2023/08/02 11:39:19;;;;;;;1.48;1.38;;;17.60;99.90;;;;;;5071610;28;20048;-86
2023/08/02 11:41:45;;;;;;;2.28;1.60;;;17.70;99.90;;;;;;5067818;28;20548;-88
2023/08/02 11:44:19;;;;;;;1.77;1.67;;;18.30;99.90;;;;;;5063072;28;20040;-89
2023/08/02 11:46:53;;;;;;;1.55;1.45;;;18.00;99.90;;;;;;5071942;28;20406;-89
2023/08/02 11:49:19;;;;;;;1.90;1.80;;;18.30;99.90;;;;;;5031282;28;1162845;-89
2023/08/02 11:51:45;;;;;;;2.13;2.03;;;18.50;99.90;;;;;;5072969;28;20402;-90
2023/08/02 11:54:11;;;;;;;2.30;2.10;;;18.80;99.90;;;;;;5087659;28;20057;-89
2023/08/02 11:56:37;;;;;;;2.33;2.15;;;19.00;99.90;;;;;;5083603;28;20032;-89
2023/08/02 11:59:03;;;;;;;2.22;2.13;;;19.30;99.90;;;;;;5088882;28;20127;-89
2023/08/02 12:01:29;;;;;;;2.20;2.10;;;19.50;99.90;;;;;;5070849;28;20070;-88
2023/08/02 12:04:13;;;;;;;2.17;2.08;;;19.70;99.90;;;;;;5089843;28;20052;-89
2023/08/02 12:06:44;;;;;;;2.85;2.30;;;20.40;99.90;;;;;;5072635;28;20089;-88
2023/08/02 12:09:10;;;;;;;2.53;2.33;;;19.70;99.90;;;;;;5089571;28;21001;-90
2023/08/02 12:11:36;;;;;;;2.90;2.58;;;19.80;99.90;;;;;;5082060;28;20044;-92
2023/08/02 12:14:02;;;;;;;2.90;2.70;;;19.90;99.90;;;;;;5072730;28;20040;-89
2023/08/02 12:16:41;;;;;;;2.60;2.40;;;19.80;99.90;;;;;;5088229;28;20119;-88
2023/08/02 12:19:08;;;;;;;2.63;2.42;;;19.90;99.90;;;;;;5070980;28;20131;-87
2023/08/02 12:21:33;;;;;;;5.82;2.20;;;20.50;99.90;;;;;;5062206;28;20173;-89
2023/08/02 12:23:59;;;;;;;2.45;2.25;;;20.10;99.90;;;;;;5053789;28;20053;-90
2023/08/02 12:26:32;;;;;;;2.63;2.42;;;20.10;99.90;;;;;;5052970;28;20151;-89
2023/08/02 12:28:58;;;;;;;3.20;2.30;;;20.20;99.90;;;;;;5051119;28;20045;-89
2023/08/02 12:31:24;;;;;;;5.03;2.50;;;20.30;99.90;;;;;;5052323;28;20146;-87
2023/08/02 12:33:50;;;;;;;2.85;2.65;;;20.40;99.90;;;;;;5073491;28;20144;-87
2023/08/02 12:36:29;;;;;;;2.90;2.70;;;20.40;99.90;;;;;;5067386;28;20441;-85
2023/08/02 12:38:56;;;;;;;2.83;2.63;;;20.50;99.90;;;;;;5080594;28;20044;-89
2023/08/02 12:41:22;;;;;;;4.45;2.90;;;21.10;99.90;;;;;;5078028;28;20218;-89
2023/08/02 12:43:48;;;;;;;2.83;2.63;;;20.70;99.90;;;;;;5049691;28;20063;-86